sensor_id;sensor_type;location;lat;lon;timestamp;pressure;altitude;pressure_sealevel;temperature;humidity
51321;BME280;38732;49.556;6.286;2022-10-22T00:00:26;99139.13;;;18.80;100.00
51321;BME280;38732;49.556;6.286;2022-10-22T00:02:54;99140.19;;;18.51;100.00
51321;BME280;38732;49.556;6.286;2022-10-22T00:05:23;99141.19;;;18.47;100.00
51321;BME280;38732;49.556;6.286;2022-10-22T00:07:51;99138.13;;;18.12;100.00
51321;BME280;38732;49.556;6.286;2022-10-22T00:10:19;99142.28;;;18.41;100.00
51321;BME280;38732;49.556;6.286;2022-10-22T00:12:47;99141.22;;;17.73;100.00
51321;BME280;38732;49.556;6.286;2022-10-22T00:15:17;99145.50;;;18.01;100.00
51321;BME280;38732;49.556;6.286;2022-10-22T00:17:45;99141.84;;;18.30;100.00
51321;BME280;38732;49.556;6.286;2022-10-22T00:20:14;99149.28;;;17.40;100.00
51321;BME280;38732;49.556;6.286;2022-10-22T00:22:43;99151.44;;;18.53;100.00
51321;BME280;38732;49.556;6.286;2022-10-22T00:25:11;99158.16;;;18.37;100.00
51321;BME280;38732;49.556;6.286;2022-10-22T00:27:39;99164.56;;;18.51;100.00
51321;BME280;38732;49.556;6.286;2022-10-22T00:30:08;99166.13;;;18.81;100.00
51321;BME280;38732;49.556;6.286;2022-10-22T00:32:36;99165.94;;;18.62;100.00
51321;BME280;38732;49.556;6.286;2022-10-22T00:35:05;99160.59;;;18.65;100.00
51321;BME280;38732;49.556;6.286;2022-10-22T00:37:33;99165.31;;;18.79;100.00
51321;BME280;38732;49.556;6.286;2022-10-22T00:40:02;99163.09;;;18.68;100.00
51321;BME280;38732;49.556;6.286;2022-10-22T00:42:31;99161.41;;;18.43;100.00
51321;BME280;38732;49.556;6.286;2022-10-22T00:45:07;99165.91;;;18.40;100.00
51321;BME280;38732;49.556;6.286;2022-10-22T00:48:21;99170.69;;;18.75;100.00
51321;BME280;38732;49.556;6.286;2022-10-22T00:50:59;99170.50;;;18.33;100.00
51321;BME280;38732;49.556;6.286;2022-10-22T00:53:46;99166.41;;;18.01;100.00
51321;BME280;38732;49.556;6.286;2022-10-22T00:56:16;99177.00;;;17.69;100.00
51321;BME280;38732;49.556;6.286;2022-10-22T00:58:48;99175.31;;;18.44;100.00
51321;BME280;38732;49.556;6.286;2022-10-22T01:01:22;99176.03;;;18.24;100.00
51321;BME280;38732;49.556;6.286;2022-10-22T01:03:51;99183.19;;;17.14;100.00
51321;BME280;38732;49.556;6.286;2022-10-22T01:06:28;99194.44;;;17.69;100.00
51321;BME280;38732;49.556;6.286;2022-10-22T01:14:56;99188.13;;;18.03;100.00
51321;BME280;38732;49.556;6.286;2022-10-22T01:31:16;99224.09;;;17.68;100.00
51321;BME280;38732;49.556;6.286;2022-10-22T01:33:48;99215.66;;;18.37;100.00
51321;BME280;38732;49.556;6.286;2022-10-22T01:36:18;99222.13;;;17.75;100.00
51321;BME280;38732;49.556;6.286;2022-10-22T01:38:48;99217.66;;;17.80;100.00
51321;BME280;38732;49.556;6.286;2022-10-22T01:41:17;99224.97;;;17.95;100.00
51321;BME280;38732;49.556;6.286;2022-10-22T01:43:46;99210.91;;;17.44;100.00
51321;BME280;38732;49.556;6.286;2022-10-22T01:46:15;99217.25;;;17.37;100.00
51321;BME280;38732;49.556;6.286;2022-10-22T01:51:50;99201.63;;;17.89;100.00
51321;BME280;38732;49.556;6.286;2022-10-22T01:54:51;99208.81;;;17.56;100.00
51321;BME280;38732;49.556;6.286;2022-10-22T02:00:13;99204.13;;;17.39;100.00
51321;BME280;38732;49.556;6.286;2022-10-22T02:05:27;99208.97;;;17.78;100.00
51321;BME280;38732;49.556;6.286;2022-10-22T02:08:18;99212.78;;;17.94;100.00
51321;BME280;38732;49.556;6.286;2022-10-22T02:10:49;99219.03;;;17.07;100.00
51321;BME280;38732;49.556;6.286;2022-10-22T02:13:27;99216.16;;;17.71;100.00
51321;BME280;38732;49.556;6.286;2022-10-22T02:15:57;99213.84;;;17.35;100.00
51321;BME280;38732;49.556;6.286;2022-10-22T02:18:29;99219.34;;;17.26;100.00
51321;BME280;38732;49.556;6.286;2022-10-22T02:20:58;99216.28;;;17.12;100.00
51321;BME280;38732;49.556;6.286;2022-10-22T02:23:27;99214.72;;;17.06;100.00
51321;BME280;38732;49.556;6.286;2022-10-22T02:26:02;99204.84;;;17.44;100.00
51321;BME280;38732;49.556;6.286;2022-10-22T02:28:58;99212.88;;;17.64;100.00
51321;BME280;38732;49.556;6.286;2022-10-22T02:31:31;99222.03;;;17.78;100.00
51321;BME280;38732;49.556;6.286;2022-10-22T02:34:06;99222.47;;;17.37;100.00
51321;BME280;38732;49.556;6.286;2022-10-22T02:36:36;99220.63;;;17.67;100.00
51321;BME280;38732;49.556;6.286;2022-10-22T02:39:06;99223.06;;;17.72;100.00
51321;BME280;38732;49.556;6.286;2022-10-22T02:41:36;99225.75;;;17.71;100.00
51321;BME280;38732;49.556;6.286;2022-10-22T02:44:09;99236.19;;;17.71;100.00
51321;BME280;38732;49.556;6.286;2022-10-22T02:46:38;99239.00;;;17.38;100.00
51321;BME280;38732;49.556;6.286;2022-10-22T02:49:06;99244.00;;;17.44;100.00
51321;BME280;38732;49.556;6.286;2022-10-22T02:51:34;99237.31;;;17.62;100.00
51321;BME280;38732;49.556;6.286;2022-10-22T02:54:03;99252.25;;;17.58;100.00
51321;BME280;38732;49.556;6.286;2022-10-22T02:56:31;99243.97;;;17.17;100.00
51321;BME280;38732;49.556;6.286;2022-10-22T02:59:00;99249.13;;;17.47;100.00
51321;BME280;38732;49.556;6.286;2022-10-22T03:01:28;99261.94;;;17.55;100.00
51321;BME280;38732;49.556;6.286;2022-10-22T03:03:56;99256.00;;;17.50;100.00
51321;BME280;38732;49.556;6.286;2022-10-22T03:06:24;99263.81;;;17.23;100.00
51321;BME280;38732;49.556;6.286;2022-10-22T03:08:53;99272.69;;;17.45;100.00
51321;BME280;38732;49.556;6.286;2022-10-22T03:11:21;99279.69;;;17.43;100.00
51321;BME280;38732;49.556;6.286;2022-10-22T03:13:49;99273.56;;;17.44;100.00
51321;BME280;38732;49.556;6.286;2022-10-22T03:16:17;99264.78;;;17.47;100.00
51321;BME280;38732;49.556;6.286;2022-10-22T03:18:46;99271.66;;;17.21;100.00
51321;BME280;38732;49.556;6.286;2022-10-22T03:21:36;99277.28;;;17.37;100.00
51321;BME280;38732;49.556;6.286;2022-10-22T03:24:13;99276.47;;;17.35;100.00
51321;BME280;38732;49.556;6.286;2022-10-22T03:26:44;99280.03;;;17.33;100.00
51321;BME280;38732;49.556;6.286;2022-10-22T03:29:15;99284.34;;;17.34;100.00
51321;BME280;38732;49.556;6.286;2022-10-22T03:31:43;99285.28;;;17.31;100.00
51321;BME280;38732;49.556;6.286;2022-10-22T03:34:11;99280.16;;;17.28;99.69
51321;BME280;38732;49.556;6.286;2022-10-22T03:36:40;99283.72;;;17.25;99.16
51321;BME280;38732;49.556;6.286;2022-10-22T03:39:11;99297.94;;;17.15;97.83
51321;BME280;38732;49.556;6.286;2022-10-22T03:41:40;99286.72;;;17.12;99.46
51321;BME280;38732;49.556;6.286;2022-10-22T03:44:09;99281.59;;;17.10;98.97
51321;BME280;38732;49.556;6.286;2022-10-22T03:46:38;99290.38;;;17.06;100.00
51321;BME280;38732;49.556;6.286;2022-10-22T03:49:06;99292.16;;;17.06;100.00
51321;BME280;38732;49.556;6.286;2022-10-22T03:51:34;99289.59;;;16.71;100.00
51321;BME280;38732;49.556;6.286;2022-10-22T03:54:03;99297.38;;;17.06;100.00
51321;BME280;38732;49.556;6.286;2022-10-22T03:56:31;99304.78;;;16.57;100.00
51321;BME280;38732;49.556;6.286;2022-10-22T03:59:00;99303.78;;;16.94;100.00
51321;BME280;38732;49.556;6.286;2022-10-22T04:01:29;99292.75;;;16.84;100.00
51321;BME280;38732;49.556;6.286;2022-10-22T04:03:57;99294.78;;;17.04;99.67
51321;BME280;38732;49.556;6.286;2022-10-22T04:06:28;99291.38;;;17.02;99.77
51321;BME280;38732;49.556;6.286;2022-10-22T04:08:58;99301.03;;;16.34;100.00
51321;BME280;38732;49.556;6.286;2022-10-22T04:11:26;99319.38;;;15.57;100.00
51321;BME280;38732;49.556;6.286;2022-10-22T04:13:54;99316.53;;;16.39;100.00
51321;BME280;38732;49.556;6.286;2022-10-22T04:16:22;99322.25;;;16.53;100.00
51321;BME280;38732;49.556;6.286;2022-10-22T04:18:51;99321.88;;;16.34;100.00
51321;BME280;38732;49.556;6.286;2022-10-22T04:21:19;99325.66;;;15.87;100.00
51321;BME280;38732;49.556;6.286;2022-10-22T04:23:50;99334.44;;;15.44;100.00
51321;BME280;38732;49.556;6.286;2022-10-22T04:26:19;99331.88;;;15.00;100.00
51321;BME280;38732;49.556;6.286;2022-10-22T04:28:49;99334.41;;;15.45;100.00
51321;BME280;38732;49.556;6.286;2022-10-22T04:31:21;99331.47;;;15.20;100.00
51321;BME280;38732;49.556;6.286;2022-10-22T04:33:54;99335.06;;;15.92;100.00
51321;BME280;38732;49.556;6.286;2022-10-22T04:36:24;99344.31;;;15.67;100.00
51321;BME280;38732;49.556;6.286;2022-10-22T04:38:55;99337.28;;;15.72;100.00
51321;BME280;38732;49.556;6.286;2022-10-22T04:41:30;99347.75;;;14.86;100.00
51321;BME280;38732;49.556;6.286;2022-10-22T04:43:59;99355.03;;;14.67;100.00
51321;BME280;38732;49.556;6.286;2022-10-22T04:46:29;99352.56;;;15.05;100.00
51321;BME280;38732;49.556;6.286;2022-10-22T04:48:58;99344.38;;;15.64;100.00
51321;BME280;38732;49.556;6.286;2022-10-22T04:51:26;99351.84;;;15.40;100.00
51321;BME280;38732;49.556;6.286;2022-10-22T04:53:54;99349.63;;;16.01;100.00
51321;BME280;38732;49.556;6.286;2022-10-22T04:56:29;99345.63;;;15.88;100.00
51321;BME280;38732;49.556;6.286;2022-10-22T04:59:00;99349.97;;;16.23;100.00
51321;BME280;38732;49.556;6.286;2022-10-22T05:01:30;99351.44;;;16.33;99.77
51321;BME280;38732;49.556;6.286;2022-10-22T05:04:01;99340.69;;;16.46;98.79
51321;BME280;38732;49.556;6.286;2022-10-22T05:06:31;99341.25;;;16.57;96.16
51321;BME280;38732;49.556;6.286;2022-10-22T05:09:03;99342.91;;;16.61;96.68
51321;BME280;38732;49.556;6.286;2022-10-22T05:11:37;99344.34;;;16.38;98.13
51321;BME280;38732;49.556;6.286;2022-10-22T05:14:07;99340.38;;;16.58;95.44
51321;BME280;38732;49.556;6.286;2022-10-22T05:16:35;99355.22;;;16.54;94.96
51321;BME280;38732;49.556;6.286;2022-10-22T05:19:04;99350.22;;;16.47;95.21
51321;BME280;38732;49.556;6.286;2022-10-22T05:21:33;99347.25;;;16.60;95.03
51321;BME280;38732;49.556;6.286;2022-10-22T05:24:01;99362.66;;;16.00;99.64
51321;BME280;38732;49.556;6.286;2022-10-22T05:26:30;99359.75;;;16.13;97.82
51321;BME280;38732;49.556;6.286;2022-10-22T05:28:58;99364.72;;;15.87;100.00
51321;BME280;38732;49.556;6.286;2022-10-22T05:31:26;99370.94;;;15.80;100.00
51321;BME280;38732;49.556;6.286;2022-10-22T05:33:54;99365.22;;;15.64;98.56
51321;BME280;38732;49.556;6.286;2022-10-22T05:36:24;99368.19;;;16.23;96.53
51321;BME280;38732;49.556;6.286;2022-10-22T05:38:52;99368.25;;;15.84;100.00
51321;BME280;38732;49.556;6.286;2022-10-22T05:41:23;99367.47;;;16.18;97.01
51321;BME280;38732;49.556;6.286;2022-10-22T05:43:54;99367.97;;;15.96;99.48
51321;BME280;38732;49.556;6.286;2022-10-22T05:46:24;99374.38;;;15.82;99.67
51321;BME280;38732;49.556;6.286;2022-10-22T05:48:58;99375.31;;;15.37;100.00
51321;BME280;38732;49.556;6.286;2022-10-22T05:51:30;99385.31;;;15.98;99.45
51321;BME280;38732;49.556;6.286;2022-10-22T05:54:00;99379.56;;;16.19;96.32
51321;BME280;38732;49.556;6.286;2022-10-22T05:56:30;99385.31;;;15.98;98.54
51321;BME280;38732;49.556;6.286;2022-10-22T05:58:59;99400.34;;;16.22;95.63
51321;BME280;38732;49.556;6.286;2022-10-22T06:01:32;99393.34;;;16.24;94.64
51321;BME280;38732;49.556;6.286;2022-10-22T06:04:02;99399.09;;;16.03;96.65
51321;BME280;38732;49.556;6.286;2022-10-22T06:06:38;99399.75;;;16.11;94.57
51321;BME280;38732;49.556;6.286;2022-10-22T06:11:40;99398.75;;;16.16;94.28
51321;BME280;38732;49.556;6.286;2022-10-22T06:14:09;99412.31;;;15.93;95.38
51321;BME280;38732;49.556;6.286;2022-10-22T06:16:37;99415.41;;;16.09;94.45
51321;BME280;38732;49.556;6.286;2022-10-22T06:19:06;99414.53;;;16.10;92.78
51321;BME280;38732;49.556;6.286;2022-10-22T06:21:35;99425.16;;;16.01;94.16
51321;BME280;38732;49.556;6.286;2022-10-22T06:24:03;99427.72;;;16.03;94.36
51321;BME280;38732;49.556;6.286;2022-10-22T06:26:32;99427.75;;;16.01;94.14
51321;BME280;38732;49.556;6.286;2022-10-22T06:29:00;99429.53;;;15.99;94.69
51321;BME280;38732;49.556;6.286;2022-10-22T06:31:29;99430.47;;;15.96;93.97
51321;BME280;38732;49.556;6.286;2022-10-22T06:33:57;99428.00;;;15.90;94.13
51321;BME280;38732;49.556;6.286;2022-10-22T06:36:25;99428.00;;;15.90;94.17
51321;BME280;38732;49.556;6.286;2022-10-22T06:38:54;99446.22;;;15.90;93.68
51321;BME280;38732;49.556;6.286;2022-10-22T06:41:23;99445.41;;;15.88;93.51
51321;BME280;38732;49.556;6.286;2022-10-22T06:43:52;99453.31;;;15.84;94.99
51321;BME280;38732;49.556;6.286;2022-10-22T06:46:21;99461.03;;;15.88;95.44
51321;BME280;38732;49.556;6.286;2022-10-22T06:48:54;99461.88;;;15.90;94.32
51321;BME280;38732;49.556;6.286;2022-10-22T06:51:23;99471.44;;;15.88;97.16
51321;BME280;38732;49.556;6.286;2022-10-22T06:53:53;99472.94;;;16.00;96.64
51321;BME280;38732;49.556;6.286;2022-10-22T06:56:23;99484.13;;;16.04;99.07
51321;BME280;38732;49.556;6.286;2022-10-22T06:58:53;99476.88;;;16.18;97.23
51321;BME280;38732;49.556;6.286;2022-10-22T07:01:24;99477.44;;;16.31;96.65
51321;BME280;38732;49.556;6.286;2022-10-22T07:03:54;99482.50;;;16.37;98.52
51321;BME280;38732;49.556;6.286;2022-10-22T07:06:23;99482.28;;;16.46;96.80
51321;BME280;38732;49.556;6.286;2022-10-22T07:08:54;99489.06;;;16.53;95.65
51321;BME280;38732;49.556;6.286;2022-10-22T07:11:27;99490.66;;;16.59;94.67
51321;BME280;38732;49.556;6.286;2022-10-22T07:13:58;99493.94;;;16.67;94.95
51321;BME280;38732;49.556;6.286;2022-10-22T07:16:27;99494.69;;;16.72;93.60
51321;BME280;38732;49.556;6.286;2022-10-22T07:18:55;99498.88;;;16.79;92.79
51321;BME280;38732;49.556;6.286;2022-10-22T07:21:23;99504.06;;;16.81;93.85
51321;BME280;38732;49.556;6.286;2022-10-22T07:23:51;99499.50;;;16.89;93.33
51321;BME280;38732;49.556;6.286;2022-10-22T07:26:20;99500.13;;;16.99;91.62
51321;BME280;38732;49.556;6.286;2022-10-22T07:28:48;99505.25;;;17.02;91.93
51321;BME280;38732;49.556;6.286;2022-10-22T07:31:17;99512.94;;;17.08;91.44
51321;BME280;38732;49.556;6.286;2022-10-22T07:33:46;99515.47;;;17.11;93.93
51321;BME280;38732;49.556;6.286;2022-10-22T07:36:15;99522.41;;;17.12;92.97
51321;BME280;38732;49.556;6.286;2022-10-22T07:38:51;99525.78;;;17.17;92.26
51321;BME280;38732;49.556;6.286;2022-10-22T07:41:20;99526.56;;;17.19;90.10
51321;BME280;38732;49.556;6.286;2022-10-22T07:43:49;99524.63;;;17.28;89.74
51321;BME280;38732;49.556;6.286;2022-10-22T07:46:18;99530.59;;;17.31;89.51
51321;BME280;38732;49.556;6.286;2022-10-22T07:48:47;99532.38;;;17.31;91.13
51321;BME280;38732;49.556;6.286;2022-10-22T07:51:16;99537.47;;;17.35;90.35
51321;BME280;38732;49.556;6.286;2022-10-22T07:53:44;99540.09;;;17.35;90.69
51321;BME280;38732;49.556;6.286;2022-10-22T07:56:12;99535.72;;;17.36;92.18
51321;BME280;38732;49.556;6.286;2022-10-22T07:58:40;99539.03;;;17.42;93.82
51321;BME280;38732;49.556;6.286;2022-10-22T08:01:08;99546.66;;;17.50;91.28
51321;BME280;38732;49.556;6.286;2022-10-22T08:03:37;99547.25;;;17.60;92.28
51321;BME280;38732;49.556;6.286;2022-10-22T08:06:05;99549.69;;;17.66;93.17
51321;BME280;38732;49.556;6.286;2022-10-22T08:08:33;99552.91;;;17.76;90.46
51321;BME280;38732;49.556;6.286;2022-10-22T08:11:02;99549.19;;;17.84;92.38
51321;BME280;38732;49.556;6.286;2022-10-22T08:13:30;99557.81;;;17.88;91.57
51321;BME280;38732;49.556;6.286;2022-10-22T08:15:59;99555.13;;;17.89;89.98
51321;BME280;38732;49.556;6.286;2022-10-22T08:18:28;99564.41;;;17.68;91.52
51321;BME280;38732;49.556;6.286;2022-10-22T08:20:56;99566.31;;;17.62;92.28
51321;BME280;38732;49.556;6.286;2022-10-22T08:23:25;99571.81;;;17.20;94.83
51321;BME280;38732;49.556;6.286;2022-10-22T08:25:53;99567.47;;;17.84;91.03
51321;BME280;38732;49.556;6.286;2022-10-22T08:28:22;99578.75;;;17.86;90.01
51321;BME280;38732;49.556;6.286;2022-10-22T08:30:50;99571.88;;;18.14;88.77
51321;BME280;38732;49.556;6.286;2022-10-22T08:33:18;99573.59;;;18.15;89.35
51321;BME280;38732;49.556;6.286;2022-10-22T08:35:48;99578.84;;;18.43;87.88
51321;BME280;38732;49.556;6.286;2022-10-22T08:38:17;99578.84;;;18.43;87.30
51321;BME280;38732;49.556;6.286;2022-10-22T08:40:49;99578.63;;;18.50;88.07
51321;BME280;38732;49.556;6.286;2022-10-22T08:49:00;99597.19;;;18.11;89.04
51321;BME280;38732;49.556;6.286;2022-10-22T08:51:33;99589.63;;;18.32;89.40
51321;BME280;38732;49.556;6.286;2022-10-22T08:56:44;99586.41;;;18.52;88.71
51321;BME280;38732;49.556;6.286;2022-10-22T08:59:22;99587.06;;;18.30;89.50
51321;BME280;38732;49.556;6.286;2022-10-22T09:01:53;99587.06;;;18.01;90.96
51321;BME280;38732;49.556;6.286;2022-10-22T09:04:27;99593.50;;;18.48;90.47
51321;BME280;38732;49.556;6.286;2022-10-22T09:06:58;99594.78;;;18.63;89.07
51321;BME280;38732;49.556;6.286;2022-10-22T09:09:33;99595.78;;;18.59;88.68
51321;BME280;38732;49.556;6.286;2022-10-22T09:12:05;99589.25;;;18.44;90.06
51321;BME280;38732;49.556;6.286;2022-10-22T09:14:33;99602.19;;;18.49;90.63
51321;BME280;38732;49.556;6.286;2022-10-22T09:20:15;99607.41;;;18.79;91.69
51321;BME280;38732;49.556;6.286;2022-10-22T09:22:58;99598.75;;;19.05;86.31
51321;BME280;38732;49.556;6.286;2022-10-22T09:25:31;99610.94;;;18.78;90.36
51321;BME280;38732;49.556;6.286;2022-10-22T09:28:03;99603.13;;;18.74;91.60
51321;BME280;38732;49.556;6.286;2022-10-22T09:30:35;99598.94;;;19.25;85.83
51321;BME280;38732;49.556;6.286;2022-10-22T09:33:26;99609.94;;;18.82;86.36
51321;BME280;38732;49.556;6.286;2022-10-22T09:36:02;99619.00;;;18.98;86.28
51321;BME280;38732;49.556;6.286;2022-10-22T09:38:33;99613.53;;;19.06;88.07
51321;BME280;38732;49.556;6.286;2022-10-22T09:41:02;99607.19;;;19.39;84.67
51321;BME280;38732;49.556;6.286;2022-10-22T09:43:31;99619.50;;;19.63;84.38
51321;BME280;38732;49.556;6.286;2022-10-22T09:46:05;99615.38;;;18.74;92.06
51321;BME280;38732;49.556;6.286;2022-10-22T09:48:36;99616.56;;;18.92;87.41
51321;BME280;38732;49.556;6.286;2022-10-22T09:53:56;99626.06;;;18.96;84.35
51321;BME280;38732;49.556;6.286;2022-10-22T09:56:28;99623.25;;;19.29;83.69
51321;BME280;38732;49.556;6.286;2022-10-22T09:59:00;99623.03;;;19.08;84.47
51321;BME280;38732;49.556;6.286;2022-10-22T10:01:34;99616.81;;;19.89;83.73
51321;BME280;38732;49.556;6.286;2022-10-22T10:04:04;99621.28;;;20.11;81.79
51321;BME280;38732;49.556;6.286;2022-10-22T10:06:35;99624.03;;;20.31;79.25
51321;BME280;38732;49.556;6.286;2022-10-22T10:09:16;99619.97;;;20.46;78.39
51321;BME280;38732;49.556;6.286;2022-10-22T10:11:53;99620.38;;;20.35;78.97
51321;BME280;38732;49.556;6.286;2022-10-22T10:17:38;99630.63;;;19.94;80.82
51321;BME280;38732;49.556;6.286;2022-10-22T10:23:21;99626.78;;;20.28;82.24
51321;BME280;38732;49.556;6.286;2022-10-22T10:26:03;99626.38;;;20.39;78.67
51321;BME280;38732;49.556;6.286;2022-10-22T10:28:54;99635.28;;;20.58;79.96
51321;BME280;38732;49.556;6.286;2022-10-22T10:34:42;99634.66;;;19.53;83.02
51321;BME280;38732;49.556;6.286;2022-10-22T10:37:21;99636.56;;;20.46;80.78
51321;BME280;38732;49.556;6.286;2022-10-22T10:42:59;99632.22;;;21.35;77.41
51321;BME280;38732;49.556;6.286;2022-10-22T10:48:11;99629.81;;;21.92;72.08
51321;BME280;38732;49.556;6.286;2022-10-22T10:53:35;99631.84;;;21.02;74.04
51321;BME280;38732;49.556;6.286;2022-10-22T10:56:29;99626.88;;;20.48;76.03
51321;BME280;38732;49.556;6.286;2022-10-22T11:08:06;99632.41;;;22.12;69.39
51321;BME280;38732;49.556;6.286;2022-10-22T11:10:45;99616.31;;;22.77;72.49
51321;BME280;38732;49.556;6.286;2022-10-22T11:15:58;99607.19;;;23.20;66.90
51321;BME280;38732;49.556;6.286;2022-10-22T11:18:44;99609.66;;;23.23;65.19
51321;BME280;38732;49.556;6.286;2022-10-22T11:21:20;99606.56;;;23.33;65.61
51321;BME280;38732;49.556;6.286;2022-10-22T11:23:55;99605.41;;;23.56;65.67
51321;BME280;38732;49.556;6.286;2022-10-22T11:29:16;99608.97;;;23.55;66.69
51321;BME280;38732;49.556;6.286;2022-10-22T11:31:48;99607.03;;;23.41;62.80
51321;BME280;38732;49.556;6.286;2022-10-22T11:34:42;99609.44;;;23.45;66.76
51321;BME280;38732;49.556;6.286;2022-10-22T11:37:12;99609.16;;;24.02;62.53
51321;BME280;38732;49.556;6.286;2022-10-22T11:39:53;99611.50;;;23.91;60.61
51321;BME280;38732;49.556;6.286;2022-10-22T11:42:33;99610.75;;;23.72;58.07
51321;BME280;38732;49.556;6.286;2022-10-22T11:45:26;99609.13;;;23.69;60.95
51321;BME280;38732;49.556;6.286;2022-10-22T11:50:26;99609.59;;;23.60;63.45
51321;BME280;38732;49.556;6.286;2022-10-22T11:53:04;99602.03;;;24.04;62.51
51321;BME280;38732;49.556;6.286;2022-10-22T11:58:33;99598.50;;;26.88;49.77
51321;BME280;38732;49.556;6.286;2022-10-22T12:03:41;99596.25;;;27.88;50.20
51321;BME280;38732;49.556;6.286;2022-10-22T12:12:02;99586.59;;;28.12;47.53
51321;BME280;38732;49.556;6.286;2022-10-22T12:14:23;99593.53;;;28.52;50.08
51321;BME280;38732;49.556;6.286;2022-10-22T12:16:56;99578.63;;;29.10;45.19
51321;BME280;38732;49.556;6.286;2022-10-22T12:22:17;99577.09;;;29.30;44.66
51321;BME280;38732;49.556;6.286;2022-10-22T12:24:49;99582.56;;;27.68;46.81
51321;BME280;38732;49.556;6.286;2022-10-22T12:27:39;99571.94;;;28.07;45.11
51321;BME280;38732;49.556;6.286;2022-10-22T12:30:38;99574.25;;;27.47;45.08
51321;BME280;38732;49.556;6.286;2022-10-22T12:33:15;99575.53;;;27.02;46.62
51321;BME280;38732;49.556;6.286;2022-10-22T12:35:46;99579.97;;;26.47;49.06
51321;BME280;38732;49.556;6.286;2022-10-22T12:38:17;99583.53;;;26.04;53.79
51321;BME280;38732;49.556;6.286;2022-10-22T12:40:47;99584.50;;;25.73;50.17
51321;BME280;38732;49.556;6.286;2022-10-22T12:43:19;99581.94;;;25.57;54.23
51321;BME280;38732;49.556;6.286;2022-10-22T12:45:51;99577.78;;;25.39;54.90
51321;BME280;38732;49.556;6.286;2022-10-22T12:48:26;99571.03;;;25.64;53.70
51321;BME280;38732;49.556;6.286;2022-10-22T12:50:58;99569.16;;;25.05;54.24
51321;BME280;38732;49.556;6.286;2022-10-22T12:53:30;99571.63;;;25.38;52.77
51321;BME280;38732;49.556;6.286;2022-10-22T12:56:10;99568.81;;;24.95;54.39
51321;BME280;38732;49.556;6.286;2022-10-22T12:58:41;99565.41;;;25.09;57.32
51321;BME280;38732;49.556;6.286;2022-10-22T13:01:12;99571.84;;;24.89;54.21
51321;BME280;38732;49.556;6.286;2022-10-22T13:03:47;99579.38;;;24.00;56.35
51321;BME280;38732;49.556;6.286;2022-10-22T13:11:32;99570.56;;;24.81;56.04
51321;BME280;38732;49.556;6.286;2022-10-22T13:14:05;99565.19;;;24.35;57.55
51321;BME280;38732;49.556;6.286;2022-10-22T13:16:40;99567.34;;;24.60;58.66
51321;BME280;38732;49.556;6.286;2022-10-22T13:19:38;99568.03;;;24.63;57.80
51321;BME280;38732;49.556;6.286;2022-10-22T13:27:43;99563.31;;;24.68;58.54
51321;BME280;38732;49.556;6.286;2022-10-22T13:30:26;99561.38;;;24.56;57.12
51321;BME280;38732;49.556;6.286;2022-10-22T13:33:01;99564.34;;;24.66;62.38
51321;BME280;38732;49.556;6.286;2022-10-22T13:35:32;99565.56;;;24.60;58.34
51321;BME280;38732;49.556;6.286;2022-10-22T13:38:01;99558.25;;;24.95;54.82
51321;BME280;38732;49.556;6.286;2022-10-22T13:40:29;99551.97;;;25.28;52.92
51321;BME280;38732;49.556;6.286;2022-10-22T13:42:57;99559.72;;;25.31;56.80
51321;BME280;38732;49.556;6.286;2022-10-22T13:45:26;99552.22;;;25.54;53.66
51321;BME280;38732;49.556;6.286;2022-10-22T13:47:54;99556.94;;;25.77;57.58
51321;BME280;38732;49.556;6.286;2022-10-22T13:50:22;99554.09;;;25.80;52.40
51321;BME280;38732;49.556;6.286;2022-10-22T13:52:53;99559.97;;;25.71;58.02
51321;BME280;38732;49.556;6.286;2022-10-22T13:55:26;99553.94;;;26.12;56.82
51321;BME280;38732;49.556;6.286;2022-10-22T13:58:11;99548.28;;;26.04;51.26
51321;BME280;38732;49.556;6.286;2022-10-22T14:00:45;99555.81;;;26.10;55.75
51321;BME280;38732;49.556;6.286;2022-10-22T14:03:16;99557.13;;;26.17;54.69
51321;BME280;38732;49.556;6.286;2022-10-22T14:05:45;99555.56;;;26.42;51.09
51321;BME280;38732;49.556;6.286;2022-10-22T14:08:17;99557.56;;;26.53;49.28
51321;BME280;38732;49.556;6.286;2022-10-22T14:10:46;99556.16;;;26.74;53.87
51321;BME280;38732;49.556;6.286;2022-10-22T14:13:16;99549.22;;;26.86;53.14
51321;BME280;38732;49.556;6.286;2022-10-22T14:15:47;99542.59;;;27.06;48.31
51321;BME280;38732;49.556;6.286;2022-10-22T14:18:25;99540.63;;;27.35;46.93
51321;BME280;38732;49.556;6.286;2022-10-22T14:21:04;99544.78;;;27.52;46.86
51321;BME280;38732;49.556;6.286;2022-10-22T14:23:33;99532.88;;;27.58;47.28
51321;BME280;38732;49.556;6.286;2022-10-22T14:26:03;99535.75;;;27.29;47.44
51321;BME280;38732;49.556;6.286;2022-10-22T14:28:31;99533.63;;;27.34;52.16
51321;BME280;38732;49.556;6.286;2022-10-22T14:30:59;99541.38;;;27.37;49.65
51321;BME280;38732;49.556;6.286;2022-10-22T14:33:32;99544.03;;;27.24;50.37
51321;BME280;38732;49.556;6.286;2022-10-22T14:36:01;99530.16;;;27.34;50.03
51321;BME280;38732;49.556;6.286;2022-10-22T14:38:29;99533.94;;;27.42;48.35
51321;BME280;38732;49.556;6.286;2022-10-22T14:40:58;99536.38;;;27.20;49.22
51321;BME280;38732;49.556;6.286;2022-10-22T14:43:28;99543.72;;;27.29;50.10
51321;BME280;38732;49.556;6.286;2022-10-22T14:45:57;99538.72;;;27.24;45.98
51321;BME280;38732;49.556;6.286;2022-10-22T14:48:25;99535.19;;;27.11;49.03
51321;BME280;38732;49.556;6.286;2022-10-22T14:50:54;99526.53;;;26.95;47.08
51321;BME280;38732;49.556;6.286;2022-10-22T14:53:22;99521.19;;;26.69;48.66
51321;BME280;38732;49.556;6.286;2022-10-22T14:55:50;99531.75;;;26.42;50.67
51321;BME280;38732;49.556;6.286;2022-10-22T14:58:18;99529.16;;;26.13;51.66
51321;BME280;38732;49.556;6.286;2022-10-22T15:00:46;99527.47;;;25.98;51.95
51321;BME280;38732;49.556;6.286;2022-10-22T15:03:15;99533.13;;;25.63;49.64
51321;BME280;38732;49.556;6.286;2022-10-22T15:05:43;99537.44;;;25.35;50.40